createdAt,value
2018-07-26T00:00:56.517Z,75.17
2018-07-26T00:03:26.985Z,74.47
2018-07-26T00:05:57.363Z,73.50
2018-07-26T00:08:27.794Z,73.57
2018-07-26T00:10:59.228Z,71.37
2018-07-26T00:13:29.285Z,74.27
2018-07-26T00:15:59.474Z,74.37
2018-07-26T00:18:29.614Z,73.70
2018-07-26T00:20:59.717Z,72.93
2018-07-26T00:23:30.085Z,73.67
2018-07-26T00:26:00.428Z,76.07
2018-07-26T00:28:31.541Z,71.20
2018-07-26T00:31:01.868Z,71.70
2018-07-26T00:33:33.330Z,72.77
2018-07-26T00:36:03.763Z,70.40
2018-07-26T00:38:34.064Z,71.97
2018-07-26T00:41:11.126Z,72.80
2018-07-26T00:43:41.300Z,72.77
2018-07-26T00:46:12.185Z,68.63
2018-07-26T00:48:42.427Z,73.60
2018-07-26T00:51:12.538Z,70.63
2018-07-26T00:53:42.806Z,70.90
2018-07-26T00:56:12.963Z,71.30
2018-07-26T00:58:43.709Z,73.57
2018-07-26T01:01:14.076Z,75.90
2018-07-26T01:03:44.166Z,69.93
2018-07-26T01:06:14.562Z,71.77
2018-07-26T01:08:44.740Z,69.27
2018-07-26T01:11:15.116Z,68.83
2018-07-26T01:13:45.183Z,70.57
2018-07-26T01:16:15.806Z,70.63
2018-07-26T01:18:46.474Z,68.17
2018-07-26T01:21:17.125Z,71.23
2018-07-26T01:23:47.170Z,67.90
2018-07-26T01:26:17.267Z,69.10
2018-07-26T01:28:47.995Z,68.87
2018-07-26T01:31:18.394Z,68.07
2018-07-26T01:33:48.496Z,66.33
2018-07-26T01:36:18.765Z,68.30
2018-07-26T01:38:48.821Z,65.47
2018-07-26T01:41:19.520Z,69.80
2018-07-26T01:44:06.283Z,68.43
2018-07-26T01:46:36.568Z,65.77
2018-07-26T01:49:06.849Z,65.27
2018-07-26T01:51:36.901Z,64.23
2018-07-26T01:54:08.279Z,66.10
2018-07-26T01:56:38.774Z,67.00
2018-07-26T01:59:08.756Z,66.33
2018-07-26T02:01:39.307Z,69.13
2018-07-26T02:04:09.520Z,70.90
2018-07-26T02:06:39.692Z,68.63
2018-07-26T02:09:11.394Z,66.80
2018-07-26T02:11:42.078Z,66.23
2018-07-26T02:14:17.655Z,68.37
2018-07-26T02:16:47.415Z,70.20
2018-07-26T02:19:17.551Z,70.73
2018-07-26T02:21:47.622Z,71.53
2018-07-26T02:24:18.114Z,65.30
2018-07-26T02:26:48.553Z,68.97
2018-07-26T02:29:18.912Z,67.57
2018-07-26T02:31:49.224Z,68.80
2018-07-26T02:34:19.293Z,70.40
2018-07-26T02:36:49.346Z,67.80
2018-07-26T02:39:19.744Z,66.47
2018-07-26T02:41:49.963Z,66.73
2018-07-26T02:44:20.268Z,67.80
2018-07-26T02:46:50.737Z,65.40
2018-07-26T02:49:28.316Z,70.27
2018-07-26T02:51:58.491Z,70.30
2018-07-26T02:54:28.911Z,69.10
2018-07-26T02:56:58.980Z,71.57
2018-07-26T02:59:29.253Z,71.23
2018-07-26T03:02:00.013Z,69.30
2018-07-26T03:04:30.300Z,69.83
2018-07-26T03:07:00.806Z,67.73
2018-07-26T03:09:31.005Z,66.60
2018-07-26T03:12:01.201Z,67.97
2018-07-26T03:14:35.531Z,66.67
2018-07-26T03:17:05.686Z,67.47
2018-07-26T03:19:35.812Z,65.43
2018-07-26T03:22:06.258Z,68.40
2018-07-26T03:24:36.233Z,67.30
2018-07-26T03:27:06.744Z,67.13
2018-07-26T03:29:40.810Z,70.50
2018-07-26T03:32:11.382Z,65.30
2018-07-26T03:34:42.735Z,65.47
2018-07-26T03:37:13.466Z,66.70
2018-07-26T03:39:44.068Z,66.60
2018-07-26T03:42:15.491Z,69.23
2018-07-26T03:44:46.608Z,68.13
2018-07-26T03:47:16.880Z,65.07
2018-07-26T03:49:47.057Z,66.77
2018-07-26T03:52:17.389Z,66.37
2018-07-26T03:54:47.516Z,67.23
2018-07-26T03:57:17.732Z,67.63
2018-07-26T03:59:48.064Z,64.70
2018-07-26T04:02:18.271Z,64.67
2018-07-26T04:04:48.405Z,64.73
2018-07-26T04:07:18.893Z,66.43
2018-07-26T04:09:48.832Z,70.20
2018-07-26T04:12:18.861Z,66.43
2018-07-26T04:14:50.862Z,65.57
2018-07-26T04:17:21.669Z,66.67
2018-07-26T04:19:51.860Z,66.10
2018-07-26T04:22:21.903Z,64.63
2018-07-26T04:24:52.980Z,67.33
2018-07-26T04:27:23.574Z,68.97
2018-07-26T04:29:54.094Z,68.53
2018-07-26T04:32:24.653Z,66.33
2018-07-26T04:34:57.837Z,65.53
2018-07-26T04:37:28.065Z,66.60
2018-07-26T04:39:58.311Z,65.30
2018-07-26T04:42:28.508Z,66.20
2018-07-26T04:44:58.790Z,65.67
2018-07-26T04:47:28.885Z,67.43
2018-07-26T04:49:58.857Z,66.00
2018-07-26T04:52:29.662Z,66.80
2018-07-26T04:54:59.936Z,65.47
2018-07-26T04:57:29.951Z,64.83
2018-07-26T05:00:00.199Z,64.93
2018-07-26T05:02:30.427Z,65.20
2018-07-26T05:05:00.487Z,67.07
2018-07-26T05:07:30.841Z,67.57
2018-07-26T05:10:00.933Z,67.77
2018-07-26T05:12:31.309Z,65.33
2018-07-26T05:15:01.527Z,65.87
2018-07-26T05:17:31.564Z,70.90
2018-07-26T05:20:01.976Z,68.40
2018-07-26T05:22:32.059Z,68.33
2018-07-26T05:25:02.377Z,67.93
2018-07-26T05:27:32.833Z,68.53
2018-07-26T05:30:03.549Z,67.93
2018-07-26T05:32:34.146Z,70.50
2018-07-26T05:35:04.769Z,69.27
2018-07-26T05:37:35.362Z,69.10
2018-07-26T05:40:06.054Z,68.83
2018-07-26T05:42:36.709Z,65.93
2018-07-26T05:45:07.340Z,68.67
2018-07-26T05:47:37.977Z,68.40
2018-07-26T05:50:08.763Z,69.27
2018-07-26T05:52:39.462Z,68.87
2018-07-26T05:55:10.917Z,66.77
2018-07-26T05:57:41.157Z,64.47
2018-07-26T06:00:13.575Z,72.43
2018-07-26T06:02:45.215Z,66.97
2018-07-26T06:05:16.057Z,68.50
2018-07-26T06:07:46.343Z,65.33
2018-07-26T06:10:16.521Z,67.93
2018-07-26T06:12:46.782Z,70.70
2018-07-26T06:15:16.940Z,71.10
2018-07-26T06:17:47.322Z,67.03
2018-07-26T06:20:17.691Z,68.93
2018-07-26T06:22:47.835Z,70.07
2018-07-26T06:25:18.193Z,72.73
2018-07-26T06:27:48.334Z,71.20
2018-07-26T06:30:18.738Z,73.83
2018-07-26T06:32:49.153Z,69.80
2018-07-26T06:35:19.899Z,71.43
2018-07-26T06:37:50.130Z,69.77
2018-07-26T06:40:20.426Z,71.10
2018-07-26T06:42:50.678Z,75.20
2018-07-26T06:45:21.865Z,74.20
2018-07-26T06:47:52.010Z,72.83
2018-07-26T06:50:22.925Z,74.60
2018-07-26T06:52:53.868Z,74.03
2018-07-26T06:55:24.245Z,78.17
2018-07-26T06:57:54.328Z,74.73
2018-07-26T07:00:24.940Z,71.37
2018-07-26T07:02:56.040Z,73.57
2018-07-26T07:05:26.313Z,72.73
2018-07-26T07:07:56.594Z,75.77
2018-07-26T07:10:33.225Z,75.80
2018-07-26T07:13:03.641Z,73.90
2018-07-26T07:15:33.940Z,75.70
2018-07-26T07:18:04.311Z,74.60
2018-07-26T07:20:34.899Z,76.37
2018-07-26T07:23:05.750Z,76.50
2018-07-26T07:25:36.299Z,75.17
2018-07-26T07:28:07.119Z,74.00
2018-07-26T07:30:37.780Z,75.67
2018-07-26T07:33:08.022Z,74.90
2018-07-26T07:35:38.166Z,75.33
2018-07-26T07:38:08.375Z,79.37
2018-07-26T07:40:38.832Z,78.60
2018-07-26T07:43:09.940Z,80.63
2018-07-26T07:45:40.926Z,78.70
2018-07-26T07:48:11.096Z,77.10
2018-07-26T07:50:41.317Z,79.23
2018-07-26T07:53:12.097Z,82.03
2018-07-26T07:55:42.166Z,78.07
2018-07-26T07:58:12.534Z,75.73
2018-07-26T08:00:42.617Z,78.57
2018-07-26T08:03:12.735Z,76.60
2018-07-26T08:05:43.055Z,79.30
2018-07-26T08:08:13.562Z,74.83
2018-07-26T08:10:43.920Z,76.97
2018-07-26T08:13:14.067Z,77.10
2018-07-26T08:15:44.828Z,82.53
2018-07-26T08:18:15.049Z,79.43
2018-07-26T08:20:45.475Z,79.37
2018-07-26T08:23:16.121Z,79.53
2018-07-26T08:25:46.554Z,75.73
2018-07-26T08:28:17.991Z,76.87
2018-07-26T08:30:48.482Z,76.03
2018-07-26T08:33:19.248Z,79.77
2018-07-26T08:35:50.156Z,77.60
2018-07-26T08:38:20.547Z,75.10
2018-07-26T08:40:50.690Z,75.83
2018-07-26T08:43:21.285Z,74.47
2018-07-26T08:45:51.634Z,75.00
2018-07-26T08:48:21.638Z,77.83
2018-07-26T08:50:51.812Z,77.53
2018-07-26T08:53:21.932Z,79.47
2018-07-26T08:55:52.238Z,79.07
2018-07-26T08:58:22.341Z,73.37
2018-07-26T09:00:53.102Z,82.63
2018-07-26T09:03:24.071Z,76.83
2018-07-26T09:05:55.530Z,79.47
2018-07-26T09:08:26.189Z,76.70
2018-07-26T09:10:57.521Z,81.37
2018-07-26T09:13:27.980Z,84.17
2018-07-26T09:15:58.196Z,78.83
2018-07-26T09:18:28.710Z,75.93
2018-07-26T09:20:59.380Z,77.07
2018-07-26T09:23:29.520Z,75.97
2018-07-26T09:26:00.134Z,74.90
2018-07-26T09:28:30.254Z,77.03
2018-07-26T09:31:00.889Z,74.93
2018-07-26T09:33:31.254Z,74.57
2018-07-26T09:36:02.271Z,80.67
2018-07-26T09:38:32.960Z,75.17
2018-07-26T09:41:04.594Z,78.73
2018-07-26T09:43:35.521Z,77.57
2018-07-26T09:46:05.975Z,77.40
2018-07-26T09:48:37.158Z,80.37
2018-07-26T09:51:07.498Z,78.70
2018-07-26T09:53:38.653Z,78.07
2018-07-26T09:56:09.150Z,81.20
2018-07-26T09:58:40.232Z,78.07
2018-07-26T10:01:16.129Z,78.60
2018-07-26T10:03:46.786Z,76.60
2018-07-26T10:06:17.473Z,82.00
2018-07-26T10:08:47.742Z,82.40
2018-07-26T10:11:18.197Z,79.53
2018-07-26T10:13:48.252Z,83.60
2018-07-26T10:16:19.476Z,82.13
2018-07-26T10:18:50.093Z,83.90
2018-07-26T10:21:20.384Z,79.60
2018-07-26T10:23:51.495Z,76.83
2018-07-26T10:26:22.183Z,79.73
2018-07-26T10:28:53.465Z,77.80
2018-07-26T10:31:23.522Z,78.40
2018-07-26T10:33:53.750Z,83.20
2018-07-26T10:36:24.228Z,80.93
2018-07-26T10:38:54.468Z,80.43
2018-07-26T10:41:24.498Z,81.20
2018-07-26T10:43:54.757Z,79.73
2018-07-26T10:46:25.002Z,78.33
2018-07-26T10:48:55.216Z,78.87
2018-07-26T10:51:25.336Z,79.93
2018-07-26T10:53:55.973Z,78.00
2018-07-26T10:56:26.267Z,81.17
2018-07-26T10:58:56.530Z,80.43
2018-07-26T11:01:26.737Z,96.07
2018-07-26T11:03:57.213Z,82.10
2018-07-26T11:06:27.460Z,82.70
2018-07-26T11:08:57.901Z,85.03
2018-07-26T11:11:27.943Z,79.77
2018-07-26T11:13:58.484Z,78.53
2018-07-26T11:16:28.832Z,82.20
2018-07-26T11:18:59.198Z,82.53
2018-07-26T11:21:29.729Z,82.30
2018-07-26T11:23:59.776Z,79.93
2018-07-26T11:26:30.082Z,82.70
2018-07-26T11:29:00.233Z,79.57
2018-07-26T11:31:30.460Z,83.43
2018-07-26T11:34:00.533Z,82.30
2018-07-26T11:36:31.066Z,80.63
2018-07-26T11:39:01.372Z,83.27
2018-07-26T11:41:31.581Z,81.57
2018-07-26T11:44:01.969Z,82.60
2018-07-26T11:46:31.973Z,88.73
2018-07-26T11:49:02.194Z,81.60
2018-07-26T11:51:32.808Z,79.37
2018-07-26T11:54:03.034Z,80.73
2018-07-26T11:56:33.472Z,83.13
2018-07-26T11:59:03.677Z,81.17
2018-07-26T12:01:33.794Z,85.57
2018-07-26T12:04:03.800Z,82.00
2018-07-26T12:06:33.750Z,87.73
2018-07-26T12:09:04.247Z,81.17
2018-07-26T12:11:35.218Z,81.23
2018-07-26T12:14:05.876Z,81.83
2018-07-26T12:16:36.071Z,81.60
2018-07-26T12:19:06.865Z,81.83
2018-07-26T12:21:37.804Z,84.27
2018-07-26T12:24:08.871Z,78.93
2018-07-26T12:26:39.998Z,83.13
2018-07-26T12:29:10.352Z,82.43
2018-07-26T12:31:40.690Z,81.10
2018-07-26T12:34:11.361Z,81.03
2018-07-26T12:36:41.624Z,81.57
2018-07-26T12:39:13.570Z,82.07
2018-07-26T12:41:43.706Z,85.13
2018-07-26T12:44:14.832Z,84.50
2018-07-26T12:46:44.985Z,80.50
2018-07-26T12:49:15.902Z,82.50
2018-07-26T12:51:46.210Z,82.23
2018-07-26T12:54:16.249Z,84.03
2018-07-26T12:56:46.497Z,82.37
2018-07-26T12:59:16.773Z,81.33
2018-07-26T13:01:47.020Z,80.87
2018-07-26T13:04:17.237Z,83.33
2018-07-26T13:06:47.649Z,80.53
2018-07-26T13:09:17.582Z,81.10
2018-07-26T13:11:47.971Z,81.87
2018-07-26T13:14:18.182Z,82.03
2018-07-26T13:16:48.265Z,88.27
2018-07-26T13:19:19.050Z,80.97
2018-07-26T13:21:49.149Z,83.63
2018-07-26T13:24:19.485Z,85.90
2018-07-26T13:26:49.464Z,84.77
2018-07-26T13:29:19.688Z,82.27
2018-07-26T13:31:50.514Z,84.70
2018-07-26T13:34:21.130Z,80.33
2018-07-26T13:36:51.363Z,84.57
2018-07-26T13:39:22.422Z,84.90
2018-07-26T13:41:52.964Z,83.70
2018-07-26T13:44:24.081Z,83.70
2018-07-26T13:46:54.309Z,90.67
2018-07-26T13:49:24.534Z,88.17
2018-07-26T13:51:54.949Z,87.13
2018-07-26T13:54:25.218Z,87.37
2018-07-26T13:56:55.651Z,84.73
2018-07-26T13:59:25.732Z,87.43
2018-07-26T14:01:56.007Z,81.33
2018-07-26T14:04:26.261Z,83.30
2018-07-26T14:06:56.500Z,84.67
2018-07-26T14:09:27.845Z,83.17
2018-07-26T14:11:58.175Z,80.03
2018-07-26T14:14:28.366Z,83.87
2018-07-26T14:16:58.641Z,81.70
2018-07-26T14:19:29.906Z,85.70
2018-07-26T14:22:00.120Z,82.57
2018-07-26T14:24:30.073Z,84.43
2018-07-26T14:27:00.326Z,83.37
2018-07-26T14:29:31.187Z,82.90
2018-07-26T14:32:01.267Z,82.90
2018-07-26T14:34:31.292Z,82.27
2018-07-26T14:37:02.037Z,84.85
2018-07-26T14:39:32.445Z,82.47
2018-07-26T14:42:02.807Z,88.27
2018-07-26T14:44:33.072Z,84.25
2018-07-26T14:47:03.162Z,86.82
2018-07-26T14:49:34.442Z,86.50
2018-07-26T14:52:04.625Z,90.45
2018-07-26T14:54:35.154Z,83.10
2018-07-26T14:57:05.256Z,85.30
2018-07-26T14:59:35.398Z,82.62
2018-07-26T15:02:05.864Z,86.22
2018-07-26T15:04:35.995Z,83.97
2018-07-26T15:07:06.386Z,83.33
2018-07-26T15:09:36.854Z,82.50
2018-07-26T15:12:07.223Z,81.87
2018-07-26T15:14:37.399Z,86.17
2018-07-26T15:17:07.539Z,85.20
2018-07-26T15:19:38.381Z,84.10
2018-07-26T15:22:08.602Z,85.33
2018-07-26T15:24:38.886Z,87.13
2018-07-26T15:27:09.323Z,82.07
2018-07-26T15:29:39.808Z,84.90
2018-07-26T15:32:10.136Z,86.77
2018-07-26T15:34:40.540Z,82.43
2018-07-26T15:37:10.776Z,81.07
2018-07-26T15:39:41.389Z,81.50
2018-07-26T15:42:12.563Z,83.40
2018-07-26T15:44:43.306Z,84.30
2018-07-26T15:47:13.614Z,82.97
2018-07-26T15:49:44.335Z,81.43
2018-07-26T15:52:14.456Z,84.67
2018-07-26T15:54:44.847Z,84.80
2018-07-26T15:57:14.946Z,84.27
2018-07-26T15:59:44.997Z,84.23
2018-07-26T16:02:15.333Z,81.87
2018-07-26T16:04:45.405Z,82.93
2018-07-26T16:07:15.488Z,84.30
2018-07-26T16:09:45.655Z,82.40
2018-07-26T16:12:16.925Z,87.23
2018-07-26T16:14:48.022Z,82.17
2018-07-26T16:17:18.197Z,83.50
2018-07-26T16:19:48.857Z,81.30
2018-07-26T16:22:19.556Z,84.73
2018-07-26T16:24:49.766Z,88.03
2018-07-26T16:27:20.072Z,86.10
2018-07-26T16:29:50.720Z,82.23
2018-07-26T16:32:22.517Z,80.23
2018-07-26T16:34:52.887Z,87.50
2018-07-26T16:37:23.086Z,85.50
2018-07-26T16:39:54.003Z,93.33
2018-07-26T16:42:24.231Z,89.57
2018-07-26T16:44:55.559Z,81.97
2018-07-26T16:47:25.670Z,83.10
2018-07-26T16:49:55.760Z,86.23
2018-07-26T16:52:26.459Z,81.53
2018-07-26T16:54:56.639Z,87.07
2018-07-26T16:57:27.321Z,86.17
2018-07-26T16:59:57.798Z,90.30
2018-07-26T17:02:28.081Z,86.03
2018-07-26T17:04:58.264Z,92.67
2018-07-26T17:07:28.401Z,89.13
2018-07-26T17:09:59.622Z,88.97
2018-07-26T17:12:29.840Z,92.17
2018-07-26T17:15:00.357Z,86.97
2018-07-26T17:17:31.478Z,84.97
2018-07-26T17:20:01.798Z,89.67
2018-07-26T17:22:32.001Z,87.90
2018-07-26T17:25:02.824Z,86.27
2018-07-26T17:27:33.574Z,85.60
2018-07-26T17:30:08.332Z,81.67
2018-07-26T17:32:38.616Z,83.83
2018-07-26T17:35:09.534Z,85.27
2018-07-26T17:37:40.360Z,87.07
2018-07-26T17:40:10.883Z,83.93
2018-07-26T17:42:43.301Z,86.07
2018-07-26T17:45:16.328Z,82.77
2018-07-26T17:47:46.778Z,86.03
2018-07-26T17:50:17.010Z,86.97
2018-07-26T17:52:47.141Z,86.97
2018-07-26T17:55:17.936Z,83.83
2018-07-26T17:57:48.317Z,82.93
2018-07-26T18:00:18.474Z,86.83
2018-07-26T18:02:48.965Z,92.20
2018-07-26T18:05:19.196Z,84.53
2018-07-26T18:07:49.561Z,82.87
2018-07-26T18:10:19.783Z,87.67
2018-07-26T18:12:49.912Z,81.60
2018-07-26T18:15:20.125Z,85.53
2018-07-26T18:17:50.327Z,84.10
2018-07-26T18:20:20.927Z,88.30
2018-07-26T18:22:51.086Z,83.73
2018-07-26T18:25:21.381Z,87.43
2018-07-26T18:27:51.595Z,83.53
2018-07-26T18:30:21.665Z,85.47
2018-07-26T18:32:52.042Z,82.40
2018-07-26T18:35:22.211Z,81.00
2018-07-26T18:37:52.640Z,84.13
2018-07-26T18:40:22.836Z,85.87
2018-07-26T18:42:53.164Z,85.90
2018-07-26T18:45:23.375Z,83.97
2018-07-26T18:47:53.641Z,81.70
2018-07-26T18:50:23.736Z,81.67
2018-07-26T18:52:53.952Z,84.23
2018-07-26T18:55:24.005Z,80.70
2018-07-26T18:57:54.538Z,83.97
2018-07-26T19:00:25.410Z,83.57
2018-07-26T19:02:56.043Z,81.63
2018-07-26T19:05:26.637Z,83.57
2018-07-26T19:07:57.822Z,80.20
2018-07-26T19:10:27.788Z,84.23
2018-07-26T19:12:58.311Z,83.07
2018-07-26T19:15:28.480Z,83.63
2018-07-26T19:17:59.259Z,85.53
2018-07-26T19:20:29.548Z,83.70
2018-07-26T19:22:59.912Z,83.90
2018-07-26T19:25:30.373Z,85.30
2018-07-26T19:28:00.623Z,83.63
2018-07-26T19:30:30.867Z,82.97
2018-07-26T19:33:01.365Z,82.33
2018-07-26T19:35:31.830Z,81.17
2018-07-26T19:38:02.111Z,84.77
2018-07-26T19:40:32.185Z,88.97
2018-07-26T19:43:03.338Z,81.87
2018-07-26T19:45:33.530Z,84.70
2018-07-26T19:48:04.846Z,81.40
2018-07-26T19:50:35.696Z,87.97
2018-07-26T19:53:05.917Z,84.97
2018-07-26T19:55:36.435Z,82.50
2018-07-26T19:58:07.037Z,85.27
2018-07-26T20:00:37.201Z,84.80
2018-07-26T20:03:07.384Z,81.73
2018-07-26T20:05:37.587Z,82.70
2018-07-26T20:08:08.058Z,85.47
2018-07-26T20:10:38.264Z,81.23
2018-07-26T20:13:08.364Z,82.37
2018-07-26T20:15:38.470Z,82.57
2018-07-26T20:18:08.995Z,84.10
2018-07-26T20:20:39.129Z,79.17
2018-07-26T20:23:10.197Z,79.80
2018-07-26T20:25:45.810Z,75.00
2018-07-26T20:28:18.808Z,82.00
2018-07-26T20:30:49.821Z,77.30
2018-07-26T20:33:19.731Z,79.50
2018-07-26T20:35:50.084Z,80.87
2018-07-26T20:38:20.320Z,79.30
2018-07-26T20:40:51.397Z,75.93
2018-07-26T20:43:21.677Z,80.57
2018-07-26T20:45:51.946Z,78.67
2018-07-26T20:48:22.240Z,80.13
2018-07-26T20:50:52.389Z,83.70
2018-07-26T20:53:22.918Z,77.87
2018-07-26T20:55:53.241Z,76.37
2018-07-26T20:58:23.232Z,80.70
2018-07-26T21:00:53.668Z,78.27
2018-07-26T21:03:23.702Z,79.03
2018-07-26T21:05:53.963Z,76.30
2018-07-26T21:08:24.562Z,75.97
2018-07-26T21:10:55.318Z,77.37
2018-07-26T21:13:25.720Z,75.27
2018-07-26T21:15:55.926Z,79.30
2018-07-26T21:18:26.154Z,76.60
2018-07-26T21:20:56.296Z,75.70
2018-07-26T21:23:26.965Z,72.50
2018-07-26T21:25:57.363Z,74.97
2018-07-26T21:28:27.470Z,74.93
2018-07-26T21:30:57.823Z,79.07
2018-07-26T21:33:28.046Z,78.87
2018-07-26T21:35:58.158Z,76.70
2018-07-26T21:38:28.407Z,73.93
2018-07-26T21:40:59.849Z,75.37
2018-07-26T21:43:30.211Z,76.50
2018-07-26T21:46:00.759Z,75.40
2018-07-26T21:48:31.353Z,74.40
2018-07-26T21:51:02.169Z,72.77
2018-07-26T21:53:32.548Z,72.63
2018-07-26T21:56:03.151Z,73.87
2018-07-26T21:58:33.393Z,74.43
2018-07-26T22:01:04.101Z,73.23
2018-07-26T22:03:34.485Z,76.40
2018-07-26T22:06:04.875Z,75.10
2018-07-26T22:08:35.545Z,74.23
2018-07-26T22:11:05.628Z,74.67
2018-07-26T22:13:36.164Z,76.90
2018-07-26T22:16:06.526Z,72.87
2018-07-26T22:18:37.748Z,75.03
2018-07-26T22:21:08.185Z,76.43
2018-07-26T22:23:38.864Z,74.20
2018-07-26T22:26:09.650Z,75.77
2018-07-26T22:28:40.375Z,73.80
2018-07-26T22:31:10.715Z,73.43
2018-07-26T22:33:41.053Z,70.77
2018-07-26T22:36:11.946Z,73.83
2018-07-26T22:38:42.097Z,74.57
2018-07-26T22:41:13.170Z,75.10
2018-07-26T22:43:43.506Z,72.07
2018-07-26T22:46:14.216Z,75.57
2018-07-26T22:48:44.698Z,71.73
2018-07-26T22:51:15.044Z,71.93
2018-07-26T22:53:45.880Z,75.33
2018-07-26T22:56:16.137Z,73.53
2018-07-26T22:58:46.776Z,70.23
2018-07-26T23:01:16.842Z,88.83
2018-07-26T23:03:47.326Z,71.97
2018-07-26T23:06:19.478Z,74.47
2018-07-26T23:08:49.565Z,73.63
2018-07-26T23:11:20.836Z,70.73
2018-07-26T23:13:51.358Z,69.33
2018-07-26T23:16:23.100Z,73.00
2018-07-26T23:18:54.322Z,70.73
2018-07-26T23:21:25.537Z,73.40
2018-07-26T23:23:56.129Z,69.13
2018-07-26T23:26:27.617Z,73.83
2018-07-26T23:28:58.316Z,70.07
2018-07-26T23:31:28.552Z,72.37
2018-07-26T23:34:00.776Z,71.93
2018-07-26T23:36:32.179Z,71.27
2018-07-26T23:39:02.506Z,69.80
2018-07-26T23:41:33.524Z,68.57
2018-07-26T23:44:04.838Z,71.40
2018-07-26T23:46:34.927Z,71.93
2018-07-26T23:49:05.577Z,72.93
2018-07-26T23:54:03.549Z,71.10
2018-07-26T23:56:36.984Z,69.80
2018-07-26T23:59:07.157Z,72.50
